Time;durP1;ratioP1;P1;durP2;ratioP2;P2;SDS_P1;SDS_P2;PMS_P1;PMS_P2;Temp;Humidity;BMP_temperature;BMP_pressure;BME280_temperature;BME280_humidity;BME280_pressure;Samples;Min_cycle;Max_cycle;Signal;HPM_P1;HPM_P2
2022/03/08 00:00:03;;;;;;;7.65;4.75;;;2.40;99.90;;;;;;5035014;28;20108;-77
2022/03/08 00:02:29;;;;;;;7.10;4.80;;;2.30;99.90;;;;;;5035038;28;20108;-77
2022/03/08 00:04:56;;;;;;;10.00;5.68;;;2.30;99.90;;;;;;5035125;28;20442;-78
2022/03/08 00:07:21;;;;;;;10.98;5.68;;;2.20;99.90;;;;;;5034835;28;20032;-76
2022/03/08 00:09:47;;;;;;;10.55;5.90;;;2.10;99.90;;;;;;5034864;28;20485;-78
2022/03/08 00:12:12;;;;;;;8.13;5.93;;;2.10;99.90;;;;;;5035266;28;20433;-79
2022/03/08 00:14:38;;;;;;;9.90;5.25;;;2.00;99.90;;;;;;5033420;28;20371;-76
2022/03/08 00:17:03;;;;;;;9.93;5.47;;;2.00;99.90;;;;;;5034473;28;20064;-74
2022/03/08 00:19:29;;;;;;;9.73;5.20;;;1.90;99.90;;;;;;5034790;28;20034;-76
2022/03/08 00:21:55;;;;;;;7.57;4.97;;;2.00;99.90;;;;;;5033912;28;20036;-78
2022/03/08 00:24:21;;;;;;;10.00;6.22;;;1.90;99.90;;;;;;5035685;28;20493;-78
2022/03/08 00:26:46;;;;;;;9.07;5.57;;;1.90;99.90;;;;;;5034821;28;20032;-76
2022/03/08 00:29:12;;;;;;;7.85;4.80;;;1.80;99.90;;;;;;5017443;28;20029;-78
2022/03/08 00:31:37;;;;;;;10.57;5.97;;;1.90;99.90;;;;;;5016982;28;20041;-78
2022/03/08 00:34:04;;;;;;;8.30;5.10;;;1.90;99.90;;;;;;5016739;28;20025;-78
2022/03/08 00:36:30;;;;;;;7.18;4.47;;;1.90;99.90;;;;;;5034672;28;20095;-76
2022/03/08 00:38:56;;;;;;;8.65;4.68;;;1.80;99.90;;;;;;5042022;28;20092;-76
2022/03/08 00:41:22;;;;;;;7.93;4.22;;;1.80;99.90;;;;;;5039764;28;20400;-76
2022/03/08 00:43:48;;;;;;;8.13;4.82;;;1.90;99.90;;;;;;5035258;28;20496;-78
2022/03/08 00:46:15;;;;;;;8.93;4.15;;;1.90;99.90;;;;;;5034724;28;20056;-78
2022/03/08 00:48:41;;;;;;;9.02;5.18;;;1.90;99.90;;;;;;5041675;28;20052;-77
2022/03/08 00:51:07;;;;;;;7.03;4.82;;;1.80;99.90;;;;;;5038682;28;20021;-78
2022/03/08 00:53:32;;;;;;;8.07;4.97;;;1.80;99.90;;;;;;5035196;28;20034;-75
2022/03/08 00:55:58;;;;;;;6.95;4.90;;;1.70;99.90;;;;;;5035048;28;20175;-76
2022/03/08 00:58:23;;;;;;;7.70;4.53;;;1.70;99.90;;;;;;5039065;28;20037;-78
2022/03/08 01:00:49;;;;;;;9.82;4.80;;;1.70;99.90;;;;;;5038585;28;20041;-77
2022/03/08 01:03:14;;;;;;;7.97;5.03;;;1.70;99.90;;;;;;5017696;28;20128;-77
2022/03/08 01:05:41;;;;;;;6.63;4.70;;;1.80;99.90;;;;;;5034347;28;20278;-78
2022/03/08 01:08:07;;;;;;;9.10;4.80;;;1.90;99.90;;;;;;5034624;28;20244;-78
2022/03/08 01:10:33;;;;;;;7.30;4.60;;;1.90;99.90;;;;;;5016094;28;20034;-76
2022/03/08 01:12:59;;;;;;;6.35;4.13;;;1.90;99.90;;;;;;5016862;28;20076;-78
2022/03/08 01:15:26;;;;;;;7.22;4.40;;;1.80;99.90;;;;;;5034115;28;20124;-78
2022/03/08 01:17:53;;;;;;;7.43;4.95;;;1.90;99.90;;;;;;5033938;28;20026;-78
2022/03/08 01:20:19;;;;;;;7.28;4.72;;;1.80;99.90;;;;;;5033886;28;20101;-78
2022/03/08 01:22:44;;;;;;;5.85;4.13;;;1.80;99.90;;;;;;5034558;28;20491;-78
2022/03/08 01:25:12;;;;;;;7.00;4.38;;;1.70;99.90;;;;;;5034942;28;20032;-77
2022/03/08 01:27:38;;;;;;;8.00;4.57;;;1.70;99.90;;;;;;5034203;28;20125;-78
2022/03/08 01:30:08;;;;;;;10.27;5.00;;;1.60;99.90;;;;;;5034680;28;20053;-78
2022/03/08 01:32:34;;;;;;;7.43;5.18;;;1.70;99.90;;;;;;5032989;28;20030;-78
2022/03/08 01:35:01;;;;;;;9.45;4.82;;;1.60;99.90;;;;;;5034066;28;20436;-76
2022/03/08 01:37:26;;;;;;;7.10;4.90;;;1.60;99.90;;;;;;5015962;28;20022;-76
2022/03/08 01:39:52;;;;;;;7.90;5.18;;;1.50;99.90;;;;;;5033857;28;20021;-78
2022/03/08 01:42:21;;;;;;;9.20;5.65;;;1.40;99.90;;;;;;5015465;28;20032;-78
2022/03/08 01:44:47;;;;;;;7.50;5.55;;;1.40;99.90;;;;;;5049236;28;20033;-77
2022/03/08 01:47:15;;;;;;;8.98;5.10;;;1.20;99.90;;;;;;5054020;28;20044;-78
2022/03/08 01:49:41;;;;;;;7.22;4.78;;;1.20;99.90;;;;;;5053569;28;20029;-76
2022/03/08 01:52:08;;;;;;;9.23;5.72;;;1.30;99.90;;;;;;5053259;28;20082;-76
2022/03/08 01:54:34;;;;;;;7.72;5.13;;;1.40;99.90;;;;;;5035593;28;20408;-78
2022/03/08 01:57:00;;;;;;;7.35;4.63;;;1.40;99.90;;;;;;5053578;28;20029;-77
2022/03/08 01:59:25;;;;;;;7.70;5.40;;;1.50;99.90;;;;;;5052848;28;20029;-78
2022/03/08 02:01:51;;;;;;;6.85;4.85;;;1.50;99.90;;;;;;5035753;28;20116;-78
2022/03/08 02:04:17;;;;;;;8.60;5.63;;;1.50;99.90;;;;;;5056193;28;20171;-79
2022/03/08 02:06:47;;;;;;;11.10;5.18;;;1.50;99.90;;;;;;5038508;28;20399;-76
2022/03/08 02:09:13;;;;;;;9.43;4.78;;;1.50;99.90;;;;;;5056159;28;20342;-76
2022/03/08 02:11:40;;;;;;;8.23;5.15;;;1.50;99.90;;;;;;5038258;28;20071;-76
2022/03/08 02:14:06;;;;;;;8.32;5.10;;;1.50;99.90;;;;;;5056045;28;20033;-77
2022/03/08 02:16:32;;;;;;;8.10;5.47;;;1.40;99.90;;;;;;5037820;28;20039;-78
2022/03/08 02:18:57;;;;;;;7.13;5.57;;;1.30;99.90;;;;;;5057465;28;20104;-77
2022/03/08 02:21:25;;;;;;;8.77;5.72;;;1.10;99.90;;;;;;5038430;28;20029;-78
2022/03/08 02:23:51;;;;;;;9.30;6.25;;;0.80;99.90;;;;;;5039080;28;20025;-78
2022/03/08 02:26:21;;;;;;;9.40;6.60;;;0.50;99.90;;;;;;5057462;28;20109;-78
2022/03/08 02:28:47;;;;;;;9.05;6.28;;;0.30;99.90;;;;;;5057905;28;20190;-77
2022/03/08 02:31:12;;;;;;;10.95;6.07;;;0.10;99.90;;;;;;5056624;28;20522;-75
2022/03/08 02:33:38;;;;;;;9.93;6.82;;;-0.10;99.90;;;;;;5056468;28;20043;-76
2022/03/08 02:36:07;;;;;;;10.25;6.57;;;-0.30;99.90;;;;;;5056431;28;20025;-76
2022/03/08 02:38:32;;;;;;;12.85;7.72;;;-0.40;99.90;;;;;;5055989;28;20029;-76
2022/03/08 02:40:58;;;;;;;9.52;6.57;;;-0.60;99.90;;;;;;5055307;28;20029;-76
2022/03/08 02:43:23;;;;;;;10.00;6.20;;;-0.70;99.90;;;;;;5051368;28;20041;-78
2022/03/08 02:45:49;;;;;;;10.55;6.72;;;-0.80;99.90;;;;;;5037117;28;20331;-78
2022/03/08 02:48:15;;;;;;;12.93;7.35;;;-0.90;99.90;;;;;;5037397;28;20406;-78
2022/03/08 02:50:41;;;;;;;11.70;7.78;;;-0.90;99.90;;;;;;5019182;28;20045;-76
2022/03/08 02:53:07;;;;;;;13.15;6.57;;;-1.00;99.90;;;;;;5018279;28;20033;-76
2022/03/08 02:55:34;;;;;;;12.85;6.50;;;-1.10;99.90;;;;;;5036284;28;20053;-78
2022/03/08 02:58:00;;;;;;;13.38;6.95;;;-1.20;99.90;;;;;;5022224;28;20032;-78
2022/03/08 03:00:28;;;;;;;11.55;6.75;;;-1.20;99.90;;;;;;5056791;28;20021;-78
2022/03/08 03:02:54;;;;;;;10.82;6.65;;;-1.10;99.90;;;;;;5056671;28;20029;-78
2022/03/08 03:05:20;;;;;;;12.85;7.43;;;-1.10;99.90;;;;;;5055796;28;20063;-76
2022/03/08 03:07:45;;;;;;;13.27;7.82;;;-1.00;99.90;;;;;;5056918;28;20021;-78
2022/03/08 03:10:15;;;;;;;10.05;6.80;;;-0.60;99.90;;;;;;5039318;28;20032;-76
2022/03/08 03:12:40;;;;;;;10.82;6.40;;;-0.30;99.90;;;;;;5056474;28;20029;-75
2022/03/08 03:15:09;;;;;;;11.02;7.65;;;-0.10;99.90;;;;;;5036800;28;20512;-77
2022/03/08 03:17:35;;;;;;;11.95;6.70;;;0.00;99.90;;;;;;5070881;28;20025;-75
2022/03/08 03:20:01;;;;;;;11.20;6.90;;;0.10;99.90;;;;;;5059843;28;20029;-75
2022/03/08 03:22:26;;;;;;;11.32;7.03;;;0.20;99.90;;;;;;5058849;28;20043;-76
2022/03/08 03:24:53;;;;;;;8.95;6.75;;;0.20;99.90;;;;;;5049900;28;20032;-76
2022/03/08 03:27:19;;;;;;;14.32;7.72;;;0.30;99.90;;;;;;5037901;28;20021;-78
2022/03/08 03:29:44;;;;;;;9.30;6.93;;;0.30;99.90;;;;;;5038208;28;20477;-76
2022/03/08 03:32:10;;;;;;;9.70;6.55;;;0.30;99.90;;;;;;5038963;28;20075;-78
2022/03/08 03:34:35;;;;;;;13.95;7.78;;;0.30;99.90;;;;;;5039703;28;20463;-77
2022/03/08 03:37:01;;;;;;;9.48;6.25;;;0.30;99.90;;;;;;5055969;28;20028;-78
2022/03/08 03:39:27;;;;;;;10.95;6.10;;;0.40;99.90;;;;;;5057700;28;20104;-79
2022/03/08 03:41:52;;;;;;;11.23;6.72;;;0.40;99.90;;;;;;5061594;28;20021;-77
2022/03/08 03:44:18;;;;;;;13.57;6.45;;;0.40;99.90;;;;;;5051191;28;20040;-77
2022/03/08 03:46:43;;;;;;;12.55;7.30;;;0.40;99.90;;;;;;5021093;28;20049;-75
2022/03/08 03:49:09;;;;;;;10.27;6.72;;;0.40;99.90;;;;;;5036752;28;20029;-78
2022/03/08 03:51:35;;;;;;;14.82;6.68;;;0.40;99.90;;;;;;5041778;28;20455;-78
2022/03/08 03:54:00;;;;;;;10.80;6.32;;;0.30;99.90;;;;;;5040483;28;20025;-77
2022/03/08 03:56:26;;;;;;;11.60;6.72;;;0.30;99.90;;;;;;5036572;28;20026;-78
2022/03/08 03:58:52;;;;;;;10.73;6.05;;;0.30;99.90;;;;;;5037089;28;20025;-78
2022/03/08 04:01:17;;;;;;;9.63;6.18;;;0.20;99.90;;;;;;5039906;28;20400;-77
2022/03/08 04:03:43;;;;;;;8.15;5.88;;;0.10;99.90;;;;;;5021508;28;20065;-76
2022/03/08 04:06:09;;;;;;;11.73;7.70;;;-0.20;99.90;;;;;;5036646;28;20026;-78
2022/03/08 04:08:35;;;;;;;10.02;6.35;;;-0.40;99.90;;;;;;5035812;28;20392;-76
2022/03/08 04:11:01;;;;;;;10.80;6.78;;;-0.60;99.90;;;;;;5017519;28;20030;-77
2022/03/08 04:13:26;;;;;;;12.43;7.03;;;-0.70;99.90;;;;;;5034548;28;20128;-78
2022/03/08 04:15:55;;;;;;;14.45;7.72;;;-0.80;99.90;;;;;;5035823;28;20367;-78
2022/03/08 04:18:20;;;;;;;12.95;6.57;;;-0.80;99.90;;;;;;5017187;28;20114;-76
2022/03/08 04:20:46;;;;;;;13.77;6.88;;;-0.80;99.90;;;;;;5035348;28;20061;-79
2022/03/08 04:23:12;;;;;;;11.95;7.32;;;-0.80;99.90;;;;;;5035886;28;20082;-78
2022/03/08 04:25:37;;;;;;;13.82;8.20;;;-0.80;99.90;;;;;;5033621;28;20029;-78
2022/03/08 04:28:04;;;;;;;11.80;8.15;;;-0.80;99.90;;;;;;5040182;28;20008;-76
2022/03/08 04:30:30;;;;;;;10.63;7.35;;;-0.70;99.90;;;;;;5037227;28;20033;-78
2022/03/08 04:32:56;;;;;;;13.52;7.10;;;-0.70;99.90;;;;;;5054751;28;20105;-78
2022/03/08 04:35:21;;;;;;;25.25;11.52;;;-0.80;99.90;;;;;;5054566;28;20028;-77
2022/03/08 04:37:47;;;;;;;28.17;16.77;;;-0.80;99.90;;;;;;5034045;28;20075;-78
2022/03/08 04:40:13;;;;;;;16.95;9.88;;;-0.80;99.90;;;;;;5056143;28;20021;-78
2022/03/08 04:42:40;;;;;;;32.47;16.88;;;-0.90;99.90;;;;;;5055908;28;20021;-78
2022/03/08 04:45:07;;;;;;;11.95;8.13;;;-0.80;99.90;;;;;;5038064;28;20337;-78
2022/03/08 04:47:35;;;;;;;15.57;8.70;;;-0.80;99.90;;;;;;5026802;28;20496;-79
2022/03/08 04:50:02;;;;;;;13.90;7.60;;;-0.70;99.90;;;;;;5054004;28;20131;-77
2022/03/08 04:52:28;;;;;;;12.45;7.53;;;-0.60;99.90;;;;;;5037312;28;20101;-77
2022/03/08 04:54:53;;;;;;;13.73;7.82;;;-0.40;99.90;;;;;;5055006;28;20527;-75
2022/03/08 04:57:20;;;;;;;12.40;7.47;;;-0.30;99.90;;;;;;5054823;28;20067;-77
2022/03/08 04:59:46;;;;;;;50.35;23.48;;;-0.30;99.90;;;;;;5055765;28;20025;-77
2022/03/08 05:02:11;;;;;;;26.92;14.43;;;-0.30;99.90;;;;;;5055977;28;20423;-78
2022/03/08 05:04:37;;;;;;;73.53;28.02;;;-0.20;99.90;;;;;;5054247;28;20436;-78
2022/03/08 05:07:02;;;;;;;21.27;10.10;;;-0.30;99.90;;;;;;5055802;28;20139;-78
2022/03/08 05:09:28;;;;;;;30.13;13.02;;;-0.30;99.90;;;;;;5035912;28;20021;-77
2022/03/08 05:11:54;;;;;;;12.98;7.90;;;-0.30;99.90;;;;;;5055154;28;20025;-80
2022/03/08 05:14:19;;;;;;;45.13;18.45;;;-0.20;99.90;;;;;;5054321;28;20104;-78
2022/03/08 05:16:45;;;;;;;45.47;21.40;;;-0.20;99.90;;;;;;5055438;28;20104;-78
2022/03/08 05:19:10;;;;;;;67.65;30.75;;;-0.30;99.90;;;;;;5054674;28;20025;-78
2022/03/08 05:21:36;;;;;;;56.28;24.60;;;-0.50;99.90;;;;;;5035782;28;20025;-78
2022/03/08 05:24:02;;;;;;;32.40;16.45;;;-0.50;99.90;;;;;;5036774;28;20474;-79
2022/03/08 05:26:28;;;;;;;18.45;10.38;;;-0.60;99.90;;;;;;5054152;28;20407;-79
2022/03/08 05:28:54;;;;;;;14.60;7.88;;;-0.60;99.90;;;;;;5053538;28;20029;-78
2022/03/08 05:31:19;;;;;;;14.20;7.40;;;-0.50;99.90;;;;;;5054320;28;20052;-77
2022/03/08 05:33:45;;;;;;;12.25;7.47;;;-0.40;99.90;;;;;;5054199;28;20112;-78
2022/03/08 05:36:10;;;;;;;18.27;8.80;;;-0.50;99.90;;;;;;5053420;28;20396;-77
2022/03/08 05:38:38;;;;;;;11.43;7.57;;;-0.50;99.90;;;;;;5056869;28;20488;-77
2022/03/08 05:41:04;;;;;;;14.10;8.00;;;-0.40;99.90;;;;;;5057552;28;20017;-76
2022/03/08 05:43:29;;;;;;;11.73;7.53;;;-0.50;99.90;;;;;;5053056;28;20031;-78
2022/03/08 05:45:55;;;;;;;13.23;8.13;;;-0.40;99.90;;;;;;5039624;28;20108;-80
2022/03/08 05:48:20;;;;;;;14.00;8.18;;;-0.40;99.90;;;;;;5038539;28;20060;-78
2022/03/08 05:50:46;;;;;;;16.63;8.50;;;-0.40;99.90;;;;;;5030107;28;20022;-75
2022/03/08 05:53:11;;;;;;;14.95;8.10;;;-0.40;99.90;;;;;;5037965;28;20413;-75
2022/03/08 05:55:37;;;;;;;14.80;8.02;;;-0.30;99.90;;;;;;5018872;28;20044;-77
2022/03/08 05:58:04;;;;;;;15.30;7.97;;;-0.30;99.90;;;;;;5019479;28;20018;-77
2022/03/08 06:00:30;;;;;;;15.85;7.75;;;-0.30;99.90;;;;;;5038236;28;20087;-77
2022/03/08 06:02:55;;;;;;;14.23;7.88;;;-0.30;99.90;;;;;;5038009;28;20026;-78
2022/03/08 06:05:22;;;;;;;15.32;7.78;;;-0.30;99.90;;;;;;5038385;28;20095;-77
2022/03/08 06:07:48;;;;;;;13.40;7.72;;;-0.30;99.90;;;;;;5038821;28;20113;-75
2022/03/08 06:10:14;;;;;;;15.40;7.40;;;-0.30;99.90;;;;;;5021235;28;20057;-78
2022/03/08 06:12:41;;;;;;;16.73;7.35;;;-0.30;99.90;;;;;;5037743;28;20044;-77
2022/03/08 06:15:07;;;;;;;13.27;7.70;;;-0.30;99.90;;;;;;5019945;28;20036;-76
2022/03/08 06:17:33;;;;;;;13.93;7.68;;;-0.30;99.90;;;;;;5037401;28;20492;-77
2022/03/08 06:19:58;;;;;;;11.05;7.22;;;-0.30;99.90;;;;;;5037318;28;20021;-77
2022/03/08 06:22:24;;;;;;;18.92;9.05;;;-0.30;99.90;;;;;;5037838;28;20021;-77
2022/03/08 06:24:49;;;;;;;16.00;7.70;;;-0.20;99.90;;;;;;5038675;28;20028;-78
2022/03/08 06:27:15;;;;;;;13.65;8.55;;;-0.10;99.90;;;;;;5019646;28;20039;-76
2022/03/08 06:29:41;;;;;;;12.55;7.85;;;0.00;99.90;;;;;;5019369;28;20029;-77
2022/03/08 06:32:07;;;;;;;13.93;7.15;;;0.20;99.90;;;;;;5037551;28;20112;-75
2022/03/08 06:34:33;;;;;;;15.25;7.68;;;0.30;99.90;;;;;;5036424;28;20059;-77
2022/03/08 06:36:58;;;;;;;15.75;7.60;;;0.50;99.90;;;;;;5036165;28;20026;-76
2022/03/08 06:39:24;;;;;;;10.63;7.35;;;0.60;99.90;;;;;;5036063;28;20477;-78
2022/03/08 06:41:49;;;;;;;15.23;7.38;;;0.60;99.90;;;;;;5036868;28;20476;-77
2022/03/08 06:44:15;;;;;;;12.85;6.65;;;0.80;99.90;;;;;;5047776;28;20177;-77
2022/03/08 06:46:44;;;;;;;12.35;7.78;;;0.90;99.90;;;;;;5038621;28;20033;-76
2022/03/08 06:49:10;;;;;;;16.58;7.05;;;1.00;99.90;;;;;;5055753;28;20369;-78
2022/03/08 06:51:37;;;;;;;10.90;6.57;;;1.10;99.90;;;;;;5037904;28;20029;-76
2022/03/08 06:54:04;;;;;;;13.63;7.50;;;1.30;99.90;;;;;;5055889;28;20045;-79
2022/03/08 06:56:31;;;;;;;14.52;7.72;;;1.60;99.90;;;;;;5056702;28;20480;-76
2022/03/08 06:58:56;;;;;;;12.70;8.20;;;1.80;99.90;;;;;;5055915;28;20024;-77
2022/03/08 07:01:22;;;;;;;12.13;7.10;;;2.00;99.90;;;;;;5058393;28;20017;-78
2022/03/08 07:03:47;;;;;;;11.65;7.00;;;2.30;99.90;;;;;;5057494;28;20372;-77
2022/03/08 07:06:13;;;;;;;14.23;7.82;;;2.40;99.90;;;;;;5055497;28;20033;-76
2022/03/08 07:08:39;;;;;;;12.13;6.95;;;2.60;99.90;;;;;;5056306;28;20029;-77
2022/03/08 07:11:05;;;;;;;11.52;6.72;;;2.80;99.90;;;;;;5061539;28;20426;-79
2022/03/08 07:13:33;;;;;;;12.68;6.90;;;3.00;99.90;;;;;;5063823;28;20036;-77
2022/03/08 07:15:59;;;;;;;10.95;6.05;;;3.30;99.90;;;;;;5061292;28;20021;-76
2022/03/08 07:18:25;;;;;;;13.13;6.63;;;3.40;99.90;;;;;;5056929;28;20370;-79
2022/03/08 07:20:50;;;;;;;14.35;6.10;;;3.70;99.90;;;;;;5056895;28;20544;-78
2022/03/08 07:23:16;;;;;;;13.32;6.63;;;3.90;99.90;;;;;;5040059;28;20028;-76
2022/03/08 07:25:42;;;;;;;12.10;6.63;;;4.10;99.90;;;;;;5057602;28;20033;-78
2022/03/08 07:28:08;;;;;;;10.23;6.70;;;4.30;99.10;;;;;;5057471;28;20021;-77
2022/03/08 07:30:33;;;;;;;11.93;6.97;;;4.50;98.50;;;;;;5057216;28;20029;-77
2022/03/08 07:32:59;;;;;;;11.38;6.65;;;4.70;95.70;;;;;;5039882;28;20025;-79
2022/03/08 07:35:25;;;;;;;14.27;6.32;;;4.80;94.10;;;;;;5057223;28;20025;-75
2022/03/08 07:37:51;;;;;;;10.90;6.53;;;4.90;92.70;;;;;;5058301;28;20469;-79
2022/03/08 07:40:17;;;;;;;13.02;6.90;;;5.10;91.50;;;;;;5057746;28;20017;-77
2022/03/08 07:42:43;;;;;;;11.95;6.57;;;5.30;91.00;;;;;;5057589;28;20139;-77
2022/03/08 07:45:09;;;;;;;15.00;6.32;;;5.40;88.90;;;;;;5038656;28;20037;-76
2022/03/08 07:47:34;;;;;;;14.63;6.95;;;5.40;88.10;;;;;;5037503;28;20041;-77
2022/03/08 07:50:00;;;;;;;11.98;7.20;;;5.60;88.50;;;;;;5038427;28;20052;-80
2022/03/08 07:52:26;;;;;;;13.10;7.07;;;5.70;87.90;;;;;;5038449;28;20111;-79
2022/03/08 07:54:52;;;;;;;11.68;6.82;;;5.80;85.30;;;;;;5019992;28;20135;-76
2022/03/08 07:57:18;;;;;;;13.18;6.90;;;5.90;85.20;;;;;;5037467;28;20090;-78
2022/03/08 07:59:44;;;;;;;13.52;7.05;;;6.10;84.30;;;;;;5019274;28;20112;-77
2022/03/08 08:02:09;;;;;;;12.27;7.65;;;6.40;83.60;;;;;;5036693;28;20021;-77
2022/03/08 08:04:35;;;;;;;12.45;7.60;;;6.60;81.30;;;;;;5035509;28;20112;-76
2022/03/08 08:07:01;;;;;;;12.23;7.68;;;6.80;79.20;;;;;;5036213;28;20052;-77
2022/03/08 08:09:26;;;;;;;14.38;7.10;;;6.90;78.50;;;;;;5036111;28;20025;-78
2022/03/08 08:11:52;;;;;;;10.18;6.18;;;6.90;78.30;;;;;;5019131;28;20033;-79
2022/03/08 08:14:18;;;;;;;8.30;6.18;;;7.00;76.00;;;;;;5036966;28;20025;-78
2022/03/08 08:16:45;;;;;;;9.77;6.40;;;7.10;76.30;;;;;;5036835;28;20468;-78
2022/03/08 08:19:11;;;;;;;11.93;5.57;;;7.30;74.00;;;;;;5036782;28;20465;-80
2022/03/08 08:21:37;;;;;;;10.48;5.95;;;7.50;72.50;;;;;;5019389;28;20120;-78
2022/03/08 08:24:03;;;;;;;8.25;5.10;;;7.50;72.10;;;;;;5019073;28;20021;-78
2022/03/08 08:26:29;;;;;;;11.23;5.60;;;7.60;70.90;;;;;;5018686;28;20029;-77
2022/03/08 08:28:54;;;;;;;10.70;6.00;;;7.70;70.10;;;;;;5017972;28;20025;-77
2022/03/08 08:31:20;;;;;;;9.32;6.15;;;7.90;70.20;;;;;;5036048;28;20109;-77
2022/03/08 08:33:45;;;;;;;9.48;5.95;;;7.70;69.20;;;;;;5036010;28;20057;-75
2022/03/08 08:36:11;;;;;;;10.73;5.78;;;7.80;69.70;;;;;;5034891;28;20029;-75
2022/03/08 08:38:36;;;;;;;10.25;5.70;;;8.10;68.50;;;;;;5018103;28;20025;-78
2022/03/08 08:41:02;;;;;;;7.85;5.97;;;8.10;68.00;;;;;;5036106;28;20389;-77
2022/03/08 08:43:27;;;;;;;13.30;6.45;;;8.00;68.00;;;;;;5040685;28;20408;-77
2022/03/08 08:45:53;;;;;;;13.27;7.35;;;8.10;68.00;;;;;;5055119;28;20029;-77
2022/03/08 08:48:20;;;;;;;10.57;5.75;;;8.10;68.20;;;;;;5050728;28;20464;-75
2022/03/08 08:50:46;;;;;;;9.95;5.85;;;8.50;68.20;;;;;;5054477;28;20029;-78
2022/03/08 08:53:12;;;;;;;9.05;5.72;;;8.70;67.30;;;;;;5053828;28;20479;-77
2022/03/08 08:55:38;;;;;;;9.10;6.10;;;8.90;66.30;;;;;;5055145;28;20478;-75
2022/03/08 08:58:05;;;;;;;9.15;5.78;;;8.90;64.90;;;;;;5036050;28;20032;-75
2022/03/08 09:00:31;;;;;;;7.88;5.05;;;8.90;65.00;;;;;;5036483;28;20067;-76
2022/03/08 09:02:58;;;;;;;8.93;5.80;;;8.80;65.00;;;;;;5054723;28;20021;-76
2022/03/08 09:05:23;;;;;;;8.35;5.28;;;9.10;64.80;;;;;;5036387;28;20029;-75
2022/03/08 09:07:49;;;;;;;11.38;5.93;;;8.90;64.00;;;;;;5035811;28;20021;-73
2022/03/08 09:10:16;;;;;;;7.63;5.63;;;9.00;64.50;;;;;;5036631;28;20112;-77
2022/03/08 09:12:43;;;;;;;7.82;5.47;;;9.10;63.60;;;;;;5053381;28;20104;-77
2022/03/08 09:15:09;;;;;;;7.78;5.25;;;9.10;64.10;;;;;;5054091;28;20048;-77
2022/03/08 09:17:37;;;;;;;12.90;5.90;;;9.30;64.40;;;;;;5053653;28;20071;-79
2022/03/08 09:20:04;;;;;;;8.98;5.78;;;9.40;62.00;;;;;;5054296;28;20104;-76
2022/03/08 09:22:30;;;;;;;8.57;6.03;;;9.20;62.00;;;;;;5036006;28;20033;-74
2022/03/08 09:24:55;;;;;;;11.68;5.95;;;9.20;62.10;;;;;;5053643;28;20040;-77
2022/03/08 09:27:21;;;;;;;12.20;5.70;;;9.50;62.10;;;;;;5036278;28;20388;-76
2022/03/08 09:29:47;;;;;;;7.50;5.05;;;9.60;60.30;;;;;;5036885;28;20021;-78
2022/03/08 09:32:12;;;;;;;8.45;4.80;;;9.20;59.00;;;;;;5054454;28;20139;-78
2022/03/08 09:34:39;;;;;;;6.65;4.68;;;8.90;60.80;;;;;;5035922;28;20472;-76
2022/03/08 09:37:06;;;;;;;9.18;5.28;;;9.00;60.10;;;;;;5054382;28;20025;-78
2022/03/08 09:39:32;;;;;;;7.47;5.32;;;9.20;60.10;;;;;;5035323;28;20367;-78
2022/03/08 09:41:58;;;;;;;9.13;5.05;;;9.40;59.60;;;;;;5053055;28;20096;-79
2022/03/08 09:44:24;;;;;;;10.68;5.35;;;9.90;59.10;;;;;;5024069;28;20036;-79
2022/03/08 09:46:50;;;;;;;6.90;4.82;;;10.00;57.50;;;;;;5033485;28;20503;-76
2022/03/08 09:49:16;;;;;;;9.50;5.18;;;9.80;57.30;;;;;;5015902;28;20029;-77
2022/03/08 09:51:43;;;;;;;10.60;5.35;;;9.90;57.60;;;;;;5033620;28;20378;-74
2022/03/08 09:54:10;;;;;;;10.55;5.25;;;10.10;56.60;;;;;;5033649;28;20029;-77
2022/03/08 09:56:35;;;;;;;6.95;5.00;;;10.00;57.60;;;;;;5032631;28;20042;-75
2022/03/08 09:59:02;;;;;;;12.23;5.05;;;10.30;57.70;;;;;;5015856;28;20029;-77
2022/03/08 10:01:28;;;;;;;6.75;4.90;;;10.40;56.70;;;;;;5034165;28;20040;-78
2022/03/08 10:03:54;;;;;;;7.22;5.32;;;10.20;56.00;;;;;;5035870;28;20036;-74
2022/03/08 10:06:19;;;;;;;7.95;5.47;;;10.20;56.30;;;;;;5041852;28;20481;-78
2022/03/08 10:08:45;;;;;;;8.52;4.47;;;10.30;56.10;;;;;;5034486;28;20108;-75
2022/03/08 10:11:14;;;;;;;6.57;4.85;;;10.30;55.90;;;;;;5034753;28;20072;-76
2022/03/08 10:13:44;;;;;;;15.38;5.22;;;10.50;55.00;;;;;;5033108;28;20026;-77
2022/03/08 10:16:15;;;;;;;10.65;5.15;;;10.60;55.90;;;;;;5034460;28;20036;-77
2022/03/08 10:18:45;;;;;;;10.25;4.88;;;10.30;54.70;;;;;;5034176;28;20071;-77
2022/03/08 10:21:35;;;;;;;8.95;4.80;;;10.30;54.70;;;;;;5033764;28;20039;-77
2022/03/08 10:24:22;;;;;;;7.38;4.45;;;10.60;55.30;;;;;;5034934;28;20026;-76
2022/03/08 10:26:51;;;;;;;6.93;4.95;;;11.30;53.50;;;;;;5018880;28;20029;-76
2022/03/08 10:29:24;;;;;;;9.38;4.82;;;11.50;53.30;;;;;;5037683;28;20120;-78
2022/03/08 10:32:02;;;;;;;5.60;4.05;;;11.50;52.40;;;;;;5037882;28;20021;-78
2022/03/08 10:34:28;;;;;;;7.80;5.03;;;11.20;52.40;;;;;;5039565;28;20048;-74
2022/03/08 10:37:12;;;;;;;7.18;4.70;;;10.80;52.80;;;;;;5021319;28;20093;-75
2022/03/08 10:39:56;;;;;;;7.68;3.85;;;11.00;53.70;;;;;;5021198;28;20405;-74
2022/03/08 10:42:31;;;;;;;6.82;4.20;;;11.40;53.00;;;;;;5019879;28;20022;-75
2022/03/08 10:45:10;;;;;;;7.45;4.82;;;11.50;51.40;;;;;;5055182;28;20047;-78
2022/03/08 10:47:39;;;;;;;8.60;4.72;;;11.40;51.20;;;;;;5040853;28;20040;-76
2022/03/08 10:50:06;;;;;;;8.13;4.60;;;11.40;51.30;;;;;;5058046;28;20111;-78
2022/03/08 10:52:37;;;;;;;8.75;4.22;;;11.30;51.20;;;;;;5058512;28;20105;-76
2022/03/08 10:55:31;;;;;;;6.95;4.25;;;11.60;51.70;;;;;;5057932;28;20028;-76
2022/03/08 10:58:12;;;;;;;6.53;5.00;;;11.90;50.10;;;;;;5057543;28;20033;-75
2022/03/08 11:00:43;;;;;;;8.43;4.45;;;12.20;50.00;;;;;;5058153;28;20074;-76
2022/03/08 11:03:12;;;;;;;5.78;4.05;;;11.90;49.40;;;;;;5058694;28;20424;-79
2022/03/08 11:05:40;;;;;;;5.75;4.40;;;11.90;50.30;;;;;;5056942;28;20024;-77
2022/03/08 11:08:08;;;;;;;9.40;4.50;;;11.90;50.10;;;;;;5060291;28;20025;-77
2022/03/08 11:10:34;;;;;;;4.65;3.58;;;12.00;49.80;;;;;;5073632;28;20048;-78
2022/03/08 11:13:01;;;;;;;5.05;3.45;;;12.00;50.90;;;;;;5053391;28;20037;-78
2022/03/08 11:15:29;;;;;;;5.80;3.90;;;12.20;49.20;;;;;;5061085;28;20025;-75
2022/03/08 11:17:57;;;;;;;7.40;4.05;;;12.40;49.00;;;;;;5039811;28;20027;-74
2022/03/08 11:20:24;;;;;;;5.40;3.53;;;12.30;47.70;;;;;;5057905;28;20024;-77
2022/03/08 11:22:51;;;;;;;6.85;3.95;;;12.30;47.30;;;;;;5040200;28;20029;-76
2022/03/08 11:25:18;;;;;;;9.25;4.63;;;12.30;47.90;;;;;;5038585;28;20105;-74
2022/03/08 11:27:46;;;;;;;7.57;4.25;;;12.00;48.40;;;;;;5055423;28;20104;-78
2022/03/08 11:30:18;;;;;;;6.50;4.28;;;12.00;48.00;;;;;;5036682;28;20440;-78
2022/03/08 11:32:58;;;;;;;8.57;3.90;;;12.10;48.80;;;;;;5054448;28;20495;-78
2022/03/08 11:35:50;;;;;;;6.30;3.95;;;12.10;49.30;;;;;;5036964;28;20036;-77
2022/03/08 11:38:16;;;;;;;6.28;4.00;;;12.30;48.80;;;;;;5056407;28;20013;-76
2022/03/08 11:40:53;;;;;;;6.63;3.63;;;12.40;47.40;;;;;;5056697;28;20376;-75
2022/03/08 11:43:20;;;;;;;6.05;3.47;;;12.30;47.20;;;;;;5052611;28;20474;-78
2022/03/08 11:45:50;;;;;;;5.80;3.58;;;12.20;48.70;;;;;;5037274;28;20031;-77
2022/03/08 11:48:21;;;;;;;5.57;3.40;;;12.30;47.40;;;;;;5073371;23;20060;-77
2022/03/08 11:50:48;;;;;;;6.50;4.03;;;12.50;47.80;;;;;;5059039;28;20357;-79
2022/03/08 11:53:23;;;;;;;5.72;3.65;;;12.80;47.40;;;;;;5038684;28;20021;-78
2022/03/08 11:55:55;;;;;;;7.22;3.80;;;13.10;46.30;;;;;;5056383;28;20071;-79
2022/03/08 11:58:23;;;;;;;7.22;4.38;;;13.20;46.40;;;;;;5056046;28;20029;-78
2022/03/08 12:00:57;;;;;;;6.63;3.35;;;13.10;46.10;;;;;;5056208;28;20031;-77
2022/03/08 12:03:22;;;;;;;7.47;3.83;;;13.10;45.90;;;;;;5057346;28;20029;-78
2022/03/08 12:05:55;;;;;;;5.40;3.35;;;13.00;46.20;;;;;;5038828;28;20025;-78
2022/03/08 12:08:30;;;;;;;5.07;3.47;;;12.80;45.20;;;;;;5041035;28;20017;-78
2022/03/08 12:10:58;;;;;;;6.93;3.75;;;12.70;45.90;;;;;;5061301;28;20483;-80
2022/03/08 12:13:35;;;;;;;6.28;3.60;;;12.80;46.50;;;;;;5042544;28;20048;-80
2022/03/08 12:16:09;;;;;;;7.03;3.22;;;12.90;46.60;;;;;;5043226;28;20051;-79
2022/03/08 12:18:45;;;;;;;5.65;3.15;;;12.90;45.80;;;;;;5058964;28;20028;-81
2022/03/08 12:21:17;;;;;;;;;;;12.80;45.60;;;;;;5058614;28;20056;-78
2022/03/08 12:23:56;;;;;;;5.97;3.60;;;12.80;45.60;;;;;;5062882;28;20297;-80
2022/03/08 12:26:29;;;;;;;4.40;2.95;;;13.20;45.20;;;;;;5042366;28;20389;-80
2022/03/08 12:29:13;;;;;;;6.32;3.10;;;13.20;44.70;;;;;;5044017;28;20049;-81
2022/03/08 12:32:04;;;;;;;4.93;3.03;;;13.00;44.00;;;;;;5044566;28;20119;-79
2022/03/08 12:34:39;;;;;;;5.60;3.28;;;13.00;44.40;;;;;;5061853;28;20118;-79
2022/03/08 12:37:41;;;;;;;5.28;2.83;;;13.00;44.60;;;;;;5074993;28;20020;-82
2022/03/08 12:40:08;;;;;;;6.35;3.47;;;13.20;44.50;;;;;;5064502;28;20028;-82
2022/03/08 12:42:42;;;;;;;4.43;3.10;;;13.10;45.10;;;;;;5065312;28;20028;-81
2022/03/08 12:45:08;;;;;;;8.93;3.05;;;13.00;44.50;;;;;;5046011;28;20523;-81
2022/03/08 12:47:36;;;;;;;5.88;3.42;;;13.10;44.40;;;;;;5045199;28;20052;-81